Time;durP1;ratioP1;P1;durP2;ratioP2;P2;SDS_P1;SDS_P2;PMS_P1;PMS_P2;Temp;Humidity;BMP_temperature;BMP_pressure;BME280_temperature;BME280_humidity;BME280_pressure;Samples;Min_cycle;Max_cycle;Signal;HPM_P1;HPM_P2
2024/01/09 00:01:04;;;;;;;15.73;9.57;;;;;;;-6.12;68.96;99492.50;4941733;28;103251;-73
2024/01/09 00:03:33;;;;;;;16.35;9.38;;;;;;;-6.05;68.35;99493.16;4938706;28;103161;-72
2024/01/09 00:06:01;;;;;;;19.50;9.32;;;;;;;-6.19;68.83;99496.97;4942603;28;103236;-73
2024/01/09 00:08:31;;;;;;;14.02;8.93;;;;;;;-6.14;68.47;99499.44;4935753;28;104251;-73
2024/01/09 00:11:00;;;;;;;17.88;9.15;;;;;;;-6.18;68.53;99506.41;4938524;28;103188;-73
2024/01/09 00:13:29;;;;;;;13.60;7.57;;;;;;;-6.13;68.50;99492.53;4938666;28;102751;-72
2024/01/09 00:15:57;;;;;;;15.35;7.93;;;;;;;-6.19;68.44;99499.56;4940195;28;102666;-73
2024/01/09 00:18:24;;;;;;;16.20;8.98;;;;;;;-6.10;68.75;99489.91;4940535;28;103453;-73
2024/01/09 00:20:54;;;;;;;18.30;9.25;;;;;;;-6.11;68.75;99493.34;4942762;28;103190;-73
2024/01/09 00:23:22;;;;;;;14.27;8.05;;;;;;;-6.09;68.25;99501.88;4952614;28;102582;-74
2024/01/09 00:25:51;;;;;;;19.05;9.63;;;;;;;-6.09;68.26;99496.72;4941048;28;102674;-73
2024/01/09 00:28:22;;;;;;;12.52;7.80;;;;;;;-6.20;67.86;99497.88;4940437;28;104057;-74
2024/01/09 00:30:50;;;;;;;12.48;7.88;;;;;;;-6.24;68.27;99491.09;4940534;28;103190;-72
2024/01/09 00:33:19;;;;;;;17.88;8.57;;;;;;;-6.23;68.45;99490.22;4955952;28;103188;-73
2024/01/09 00:35:47;;;;;;;11.88;6.85;;;;;;;-6.34;67.99;99492.25;4944299;28;102605;-73
2024/01/09 00:38:15;;;;;;;17.08;7.35;;;;;;;-6.22;68.29;99496.22;4940108;28;103939;-72
2024/01/09 00:40:44;;;;;;;15.52;8.00;;;;;;;-6.31;67.85;99494.75;4938978;28;103254;-72
2024/01/09 00:43:14;;;;;;;14.98;9.40;;;;;;;-6.14;67.76;99485.69;4941048;28;104896;-73
2024/01/09 00:45:42;;;;;;;15.07;7.80;;;;;;;-6.13;67.43;99495.97;4939917;28;104146;-73
2024/01/09 00:48:10;;;;;;;16.52;8.15;;;;;;;-6.26;68.38;99492.91;4938442;28;103858;-73
2024/01/09 00:50:38;;;;;;;15.23;8.27;;;;;;;-6.12;67.92;99491.66;4940942;28;103211;-73
2024/01/09 00:53:06;;;;;;;15.68;8.50;;;;;;;-6.11;68.12;99493.34;4934729;28;102649;-73
2024/01/09 00:55:34;;;;;;;14.05;8.15;;;;;;;-6.03;67.46;99486.25;4941327;28;102624;-73
2024/01/09 00:58:02;;;;;;;19.38;8.82;;;;;;;-6.31;67.56;99487.03;4938026;28;103478;-73
2024/01/09 01:00:31;;;;;;;17.40;9.50;;;;;;;-6.20;67.39;99484.97;4939211;28;103086;-73
2024/01/09 01:02:59;;;;;;;13.27;8.15;;;;;;;-6.21;67.75;99488.47;4949649;27;102743;-73
2024/01/09 01:05:28;;;;;;;16.58;8.45;;;;;;;-6.17;67.31;99484.91;4943549;28;104132;-73
2024/01/09 01:07:56;;;;;;;18.70;8.63;;;;;;;-6.22;67.28;99484.19;4946247;28;104313;-73
2024/01/09 01:10:24;;;;;;;16.65;8.85;;;;;;;-6.12;67.06;99491.66;4943149;28;103306;-65
2024/01/09 01:12:52;;;;;;;14.50;8.05;;;;;;;-6.31;67.23;99492.19;4940603;28;102656;-64
2024/01/09 01:15:20;;;;;;;16.83;8.43;;;;;;;-6.19;66.99;99503.88;4941748;28;102616;-65
2024/01/09 01:17:49;;;;;;;17.95;9.10;;;;;;;-6.19;67.37;99499.56;4942254;28;103953;-74
2024/01/09 01:20:17;;;;;;;13.13;8.32;;;;;;;-6.19;67.19;99491.00;4939266;28;104131;-73
2024/01/09 01:22:45;;;;;;;18.77;8.73;;;;;;;-6.19;66.69;99496.97;4942370;28;102757;-73
2024/01/09 01:25:16;;;;;;;13.60;7.25;;;;;;;-6.41;67.40;99504.47;4942208;28;102788;-65
2024/01/09 01:27:46;;;;;;;15.95;9.20;;;;;;;-6.24;67.15;99509.16;4944279;28;104079;-65
2024/01/09 01:30:14;;;;;;;17.77;8.68;;;;;;;-6.26;67.44;99505.78;4942237;28;104249;-64
2024/01/09 01:32:42;;;;;;;13.90;8.43;;;;;;;-6.39;67.06;99505.28;4943402;28;102570;-64
2024/01/09 01:35:12;;;;;;;14.40;7.93;;;;;;;-6.48;67.23;99509.81;4944943;28;104204;-64
2024/01/09 01:37:40;;;;;;;13.50;7.82;;;;;;;-6.34;67.10;99515.44;4943263;28;104242;-65
2024/01/09 01:40:08;;;;;;;17.05;7.88;;;;;;;-6.30;66.81;99508.47;4944349;28;103366;-64
2024/01/09 01:42:36;;;;;;;18.02;9.57;;;;;;;-6.34;66.86;99513.72;4943076;28;102698;-64
2024/01/09 01:45:15;;;;;;;18.50;8.77;;;;;;;-6.41;67.17;99514.78;4945195;28;103977;-64
2024/01/09 01:47:44;;;;;;;13.15;7.70;;;;;;;-6.62;67.68;99508.47;4941250;28;104173;-72
2024/01/09 01:50:15;;;;;;;16.13;9.27;;;;;;;-6.63;67.33;99511.91;4941283;28;104268;-72
2024/01/09 01:52:45;;;;;;;18.25;10.05;;;;;;;-6.51;67.25;99511.59;4945395;28;102573;-72
2024/01/09 01:55:15;;;;;;;12.00;6.80;;;;;;;-6.62;67.17;99513.59;4947815;28;102786;-74
2024/01/09 01:57:44;;;;;;;14.52;8.40;;;;;;;-6.45;67.00;99509.75;4942749;28;104458;-73
2024/01/09 02:00:17;;;;;;;17.10;8.93;;;;;;;-6.47;67.30;99511.50;4945713;28;102551;-72
2024/01/09 02:02:47;;;;;;;16.30;9.60;;;;;;;-6.53;67.16;99510.78;4942847;28;102675;-64
2024/01/09 02:05:18;;;;;;;13.57;8.13;;;;;;;-6.61;66.70;99504.16;4946234;28;104172;-64
2024/01/09 02:07:47;;;;;;;19.05;8.38;;;;;;;-6.52;67.23;99515.06;4936374;28;104070;-65
2024/01/09 02:10:17;;;;;;;16.63;8.40;;;;;;;-6.62;66.72;99513.59;4941867;28;103186;-64
2024/01/09 02:12:45;;;;;;;18.25;8.18;;;;;;;-6.47;67.49;99506.34;4943356;28;102590;-64
2024/01/09 02:15:13;;;;;;;14.80;8.68;;;;;;;-6.50;66.67;99510.72;4938171;28;104086;-65
2024/01/09 02:17:41;;;;;;;17.13;8.18;;;;;;;-6.52;66.52;99511.66;4940778;28;104614;-64
2024/01/09 02:20:10;;;;;;;15.07;7.97;;;;;;;-6.43;66.36;99513.13;4940226;28;104223;-64
2024/01/09 02:22:40;;;;;;;20.65;9.38;;;;;;;-6.43;66.34;99516.56;4942883;28;102590;-64
2024/01/09 02:25:08;;;;;;;13.85;7.70;;;;;;;-6.47;66.58;99506.34;4955090;27;104106;-64
2024/01/09 02:27:48;;;;;;;16.02;7.97;;;;;;;-6.43;67.33;99511.41;4942154;28;104132;-64
2024/01/09 02:30:18;;;;;;;16.15;8.40;;;;;;;-6.55;67.51;99504.84;4942206;28;103279;-64
2024/01/09 02:32:47;;;;;;;15.52;9.13;;;;;;;-6.46;66.88;99510.63;4940396;28;102993;-64
2024/01/09 02:35:16;;;;;;;17.88;8.20;;;;;;;-6.45;67.20;99508.00;4942588;28;104054;-64
2024/01/09 02:37:44;;;;;;;16.27;8.60;;;;;;;-6.59;67.38;99503.25;4937859;28;104162;-64
2024/01/09 02:40:12;;;;;;;13.35;8.25;;;;;;;-6.48;67.38;99505.53;4939395;28;103206;-65
2024/01/09 02:42:40;;;;;;;18.20;9.43;;;;;;;-6.40;67.65;99502.75;4960161;28;102711;-64
2024/01/09 02:45:10;;;;;;;16.60;8.48;;;;;;;-6.54;67.50;99510.84;4941034;28;104276;-64
2024/01/09 02:47:39;;;;;;;19.90;9.05;;;;;;;-6.46;67.17;99502.91;4936580;28;103743;-64
2024/01/09 02:50:08;;;;;;;13.93;8.23;;;;;;;-6.41;67.16;99498.47;4942429;28;103235;-64
2024/01/09 02:52:36;;;;;;;14.07;8.40;;;;;;;-6.53;67.08;99497.91;4933213;28;102585;-64
2024/01/09 02:55:04;;;;;;;16.73;8.75;;;;;;;-6.62;66.58;99495.56;4941013;28;102779;-65
2024/01/09 02:57:32;;;;;;;13.80;8.77;;;;;;;-6.55;66.95;99494.53;4939661;28;104105;-64
2024/01/09 03:00:00;;;;;;;15.02;7.07;;;;;;;-6.51;67.45;99495.28;4935516;28;103231;-64
2024/01/09 03:02:31;;;;;;;14.90;8.07;;;;;;;-6.48;66.47;99494.34;4937099;27;103110;-65
2024/01/09 03:05:00;;;;;;;14.50;8.30;;;;;;;-6.65;67.08;99493.09;4939705;28;104286;-65
2024/01/09 03:07:31;;;;;;;20.40;9.50;;;;;;;-6.61;67.29;99497.28;4938916;28;104589;-65
2024/01/09 03:09:59;;;;;;;15.32;8.02;;;;;;;-6.74;67.81;99494.16;4936913;28;104135;-65
2024/01/09 03:12:27;;;;;;;13.15;7.43;;;;;;;-6.70;67.85;99493.19;4940111;28;102608;-65
2024/01/09 03:14:55;;;;;;;18.23;8.40;;;;;;;-6.60;67.48;99495.53;4947385;28;103936;-65
2024/01/09 03:17:23;;;;;;;18.55;9.85;;;;;;;-6.80;67.45;99499.47;4938633;28;103182;-65
2024/01/09 03:19:54;;;;;;;20.70;9.05;;;;;;;-6.65;67.01;99493.09;4939492;28;104113;-64
2024/01/09 03:22:23;;;;;;;14.93;8.40;;;;;;;-6.56;66.87;99492.84;4933567;28;102705;-73
2024/01/09 03:24:51;;;;;;;17.27;7.95;;;;;;;-6.53;66.48;99492.75;4936483;28;103926;-74
2024/01/09 03:27:19;;;;;;;15.90;7.93;;;;;;;-6.44;66.34;99486.50;4936851;28;104288;-73
2024/01/09 03:29:47;;;;;;;20.02;8.55;;;;;;;-6.56;66.00;99492.00;4936394;28;103026;-73
2024/01/09 03:32:15;;;;;;;14.48;7.53;;;;;;;-6.51;66.60;99488.41;4940307;28;102671;-74
2024/01/09 03:34:43;;;;;;;15.35;8.65;;;;;;;-6.48;66.59;99494.34;4938178;28;104140;-74
2024/01/09 03:37:13;;;;;;;15.88;7.95;;;;;;;-6.34;65.89;99493.09;4934411;28;103314;-65
2024/01/09 03:39:45;;;;;;;14.40;7.90;;;;;;;-6.53;66.08;99492.75;4939890;28;103277;-65
2024/01/09 03:42:13;;;;;;;15.30;8.73;;;;;;;-6.40;65.85;99484.69;4936081;28;102815;-65
2024/01/09 03:44:41;;;;;;;16.13;8.73;;;;;;;-6.37;66.09;99495.75;4938086;28;104296;-64
2024/01/09 03:47:09;;;;;;;15.90;8.88;;;;;;;-6.75;66.66;99499.34;4940075;28;104300;-65
2024/01/09 03:49:40;;;;;;;16.05;8.13;;;;;;;-6.62;66.00;99493.00;4938436;28;103224;-65
2024/01/09 03:52:10;;;;;;;14.80;8.85;;;;;;;-6.78;66.97;99496.88;4955806;27;102641;-65
2024/01/09 03:54:38;;;;;;;13.18;8.43;;;;;;;-6.73;66.95;99485.56;4936552;27;103963;-65
2024/01/09 03:57:08;;;;;;;18.00;7.43;;;;;;;-6.84;66.96;99498.72;4922395;28;103309;-64
2024/01/09 03:59:36;;;;;;;14.35;8.13;;;;;;;-6.80;65.84;99490.91;4928679;28;102859;-64
2024/01/09 04:02:04;;;;;;;12.07;7.63;;;;;;;-6.79;66.87;99487.44;4933389;28;102642;-65
2024/01/09 04:04:32;;;;;;;15.77;8.48;;;;;;;-6.82;66.88;99490.94;4929514;28;103981;-64
2024/01/09 04:07:00;;;;;;;15.45;7.57;;;;;;;-6.95;65.79;99492.16;4930743;28;104125;-65
2024/01/09 04:09:29;;;;;;;16.10;8.27;;;;;;;-6.92;66.27;99489.47;4934297;28;104353;-64
2024/01/09 04:11:56;;;;;;;16.30;8.40;;;;;;;-6.94;66.52;99486.94;4937004;28;102668;-64
2024/01/09 04:14:26;;;;;;;16.35;8.65;;;;;;;-6.89;66.25;99482.53;4931825;27;104027;-72
2024/01/09 04:16:54;;;;;;;15.40;7.68;;;;;;;-6.83;66.31;99484.09;4927703;28;103996;-75
2024/01/09 04:19:22;;;;;;;15.10;7.18;;;;;;;-6.93;65.68;99488.66;4954862;27;102822;-73
2024/01/09 04:21:50;;;;;;;13.15;7.90;;;;;;;-6.83;65.65;99495.22;4934521;28;102778;-74
2024/01/09 04:24:18;;;;;;;14.93;7.70;;;;;;;-6.84;66.40;99495.28;4933028;28;103895;-73
2024/01/09 04:26:46;;;;;;;15.45;8.52;;;;;;;-6.81;66.02;99491.78;4935105;28;104170;-73
2024/01/09 04:29:15;;;;;;;16.63;7.60;;;;;;;-6.71;65.61;99493.22;4933146;28;103167;-73
2024/01/09 04:31:44;;;;;;;16.85;8.10;;;;;;;-6.87;65.67;99498.78;4932814;28;102722;-73
2024/01/09 04:34:12;;;;;;;22.55;8.95;;;;;;;-6.74;65.62;99488.19;4937472;27;102806;-74
2024/01/09 04:36:42;;;;;;;13.88;7.57;;;;;;;-6.76;65.08;99500.25;4931994;28;103539;-73
2024/01/09 04:39:10;;;;;;;12.93;7.63;;;;;;;-6.86;65.00;99495.31;4933611;28;103299;-72
2024/01/09 04:41:38;;;;;;;12.93;6.93;;;;;;;-6.90;65.64;99504.00;4942318;28;103147;-73
2024/01/09 04:44:06;;;;;;;16.45;8.00;;;;;;;-6.80;66.29;99498.63;4930357;28;104338;-74
2024/01/09 04:46:34;;;;;;;19.52;9.35;;;;;;;-6.74;66.27;99493.31;4933117;28;104139;-72
2024/01/09 04:49:04;;;;;;;15.13;7.07;;;;;;;-6.89;65.49;99500.56;4947832;28;104245;-73
2024/01/09 04:51:33;;;;;;;16.88;7.22;;;;;;;-6.85;65.92;99504.75;4929941;28;102688;-73
2024/01/09 04:54:01;;;;;;;13.02;7.20;;;;;;;-6.77;65.88;99501.13;4942781;27;103965;-73
2024/01/09 04:56:29;;;;;;;13.77;7.55;;;;;;;-6.78;65.76;99502.03;4939523;27;103043;-73
2024/01/09 04:58:57;;;;;;;14.02;8.05;;;;;;;-6.94;65.44;99489.53;4929171;28;103298;-73
2024/01/09 05:01:25;;;;;;;16.42;7.88;;;;;;;-6.96;65.17;99490.44;4931556;27;102665;-73
2024/01/09 05:03:54;;;;;;;13.88;7.35;;;;;;;-6.81;65.60;99492.66;4931501;28;103849;-73
2024/01/09 05:06:24;;;;;;;14.93;7.88;;;;;;;-6.86;65.76;99487.59;4928963;28;103074;-64
2024/01/09 05:08:52;;;;;;;11.68;7.50;;;;;;;-6.87;65.52;99493.63;4927931;28;104769;-64
2024/01/09 05:11:20;;;;;;;16.27;7.75;;;;;;;-6.91;65.12;99497.16;4933759;28;102643;-65
2024/01/09 05:13:48;;;;;;;13.85;7.10;;;;;;;-7.01;65.60;99491.41;4931643;28;104058;-64
2024/01/09 05:16:16;;;;;;;15.25;6.72;;;;;;;-7.04;65.47;99490.63;4929072;27;103974;-73
2024/01/09 05:18:45;;;;;;;12.20;7.03;;;;;;;-7.04;65.56;99480.34;4934464;28;103220;-72
2024/01/09 05:21:14;;;;;;;15.57;8.25;;;;;;;-6.91;65.74;99489.44;4929734;28;102679;-74
2024/01/09 05:23:43;;;;;;;14.38;7.30;;;;;;;-6.95;65.34;99495.56;4931555;28;102645;-74
2024/01/09 05:26:11;;;;;;;10.43;6.90;;;;;;;-6.86;65.15;99487.59;4932479;28;103240;-64
2024/01/09 05:28:39;;;;;;;14.20;7.13;;;;;;;-6.92;65.64;99495.47;4930351;27;103276;-64
2024/01/09 05:31:07;;;;;;;12.65;7.18;;;;;;;-6.87;66.19;99496.19;4927099;28;103101;-64
2024/01/09 05:33:36;;;;;;;14.20;6.78;;;;;;;-6.98;65.80;99493.06;4930387;28;104016;-65
2024/01/09 05:36:06;;;;;;;13.85;7.28;;;;;;;-6.98;66.06;99487.91;4930058;27;104060;-65
2024/01/09 05:38:34;;;;;;;14.40;8.02;;;;;;;-7.05;65.71;99488.94;4938601;28;105307;-67
2024/01/09 05:41:04;;;;;;;15.40;8.48;;;;;;;-6.95;65.68;99495.56;4930588;28;103137;-65
2024/01/09 05:43:32;;;;;;;13.15;6.95;;;;;;;-7.00;65.88;99499.97;4931579;28;103398;-64
2024/01/09 05:46:00;;;;;;;15.25;8.52;;;;;;;-6.94;65.43;99497.25;4929500;28;104175;-64
2024/01/09 05:48:28;;;;;;;11.52;7.00;;;;;;;-7.00;65.57;99497.41;4938670;28;103377;-65
2024/01/09 05:50:56;;;;;;;16.35;7.00;;;;;;;-6.95;64.88;99505.03;4931987;28;102607;-65
2024/01/09 05:53:24;;;;;;;12.90;7.22;;;;;;;-6.99;65.17;99509.41;4936847;28;103952;-63
2024/01/09 05:55:52;;;;;;;15.13;7.38;;;;;;;-7.00;65.52;99508.53;4934844;27;104250;-64
2024/01/09 05:58:22;;;;;;;17.67;8.10;;;;;;;-6.93;65.39;99504.09;4934692;27;102969;-65
2024/01/09 06:00:51;;;;;;;14.38;6.93;;;;;;;-6.93;65.43;99504.09;4942545;28;102778;-64
2024/01/09 06:03:19;;;;;;;16.65;7.75;;;;;;;-6.92;64.85;99505.78;4944641;28;103943;-64
2024/01/09 06:05:47;;;;;;;15.98;6.55;;;;;;;-6.84;65.12;99503.88;4950832;27;103050;-65
2024/01/09 06:08:15;;;;;;;11.55;7.47;;;;;;;-6.97;64.53;99507.63;4926373;28;103243;-64
2024/01/09 06:10:44;;;;;;;13.70;7.15;;;;;;;-6.81;65.16;99508.09;4933488;28;102625;-64
2024/01/09 06:13:14;;;;;;;13.85;6.78;;;;;;;-6.75;64.50;99507.91;4934355;28;102683;-65
2024/01/09 06:15:44;;;;;;;15.93;7.85;;;;;;;-6.73;64.45;99511.31;4948493;28;104264;-64
2024/01/09 06:18:13;;;;;;;13.70;7.25;;;;;;;-6.72;64.34;99512.16;4934141;28;104167;-64
2024/01/09 06:20:41;;;;;;;12.35;6.43;;;;;;;-6.66;64.51;99517.16;4933273;28;102663;-64
2024/01/09 06:23:11;;;;;;;12.35;6.35;;;;;;;-6.60;64.89;99517.00;4924639;27;103919;-64
2024/01/09 06:25:40;;;;;;;13.85;6.95;;;;;;;-6.60;65.16;99511.84;4934390;28;104381;-64
2024/01/09 06:28:08;;;;;;;14.52;7.57;;;;;;;-6.78;64.74;99513.16;4934539;28;103311;-64
2024/01/09 06:30:38;;;;;;;14.35;8.13;;;;;;;-6.71;65.30;99508.69;4930694;28;102563;-64
2024/01/09 06:33:08;;;;;;;15.38;7.30;;;;;;;-6.65;65.49;99513.69;4931525;28;103545;-75
2024/01/09 06:35:40;;;;;;;;;;;;;;;-6.67;65.57;99508.59;4930745;28;104094;-68
2024/01/09 06:38:08;;;;;;;16.88;8.52;;;;;;;-6.64;65.14;99510.25;4936075;28;103124;-65
2024/01/09 06:40:36;;;;;;;39.35;10.02;;;;;;;-6.57;65.47;99511.75;4934352;28;102716;-64
2024/01/09 06:43:07;;;;;;;13.73;7.22;;;;;;;-6.67;64.37;99521.47;4937681;27;102798;-65
2024/01/09 06:45:39;;;;;;;13.57;7.00;;;;;;;-6.75;65.32;99517.41;4944112;28;103242;-65
2024/01/09 06:48:08;;;;;;;13.48;7.78;;;;;;;-6.72;65.07;99518.16;4948785;28;104338;-65
2024/01/09 06:50:40;;;;;;;14.20;7.43;;;;;;;-6.79;64.80;99518.34;4935855;28;103187;-66
2024/01/09 06:53:09;;;;;;;15.48;7.38;;;;;;;-6.81;65.58;99517.53;4935986;28;103010;-65
2024/01/09 06:55:37;;;;;;;18.40;7.72;;;;;;;-6.84;64.80;99523.63;4932998;28;103213;-65
2024/01/09 06:58:06;;;;;;;15.95;7.13;;;;;;;-6.86;64.86;99526.22;4927452;28;103307;-65
2024/01/09 07:00:34;;;;;;;18.02;8.75;;;;;;;-6.92;64.92;99530.69;4927931;28;102612;-65
2024/01/09 07:03:02;;;;;;;14.60;7.30;;;;;;;-6.91;65.40;99528.06;4936959;27;102977;-65
2024/01/09 07:05:32;;;;;;;12.68;6.80;;;;;;;-6.96;65.49;99535.06;4933023;28;104315;-66
2024/01/09 07:08:00;;;;;;;13.60;7.50;;;;;;;-7.07;66.09;99530.19;4932469;28;103320;-66
2024/01/09 07:10:28;;;;;;;12.88;6.55;;;;;;;-6.89;65.21;99531.47;4929935;28;103336;-66
2024/01/09 07:12:57;;;;;;;14.85;6.93;;;;;;;-7.00;65.75;99534.28;4931634;28;104258;-66
2024/01/09 07:15:24;;;;;;;19.75;7.60;;;;;;;-7.08;65.76;99530.22;4933205;28;103694;-65
2024/01/09 07:17:53;;;;;;;12.93;7.53;;;;;;;-7.18;65.71;99532.16;4931656;28;103362;-65
2024/01/09 07:20:23;;;;;;;19.88;8.38;;;;;;;-7.19;65.72;99533.91;4934729;28;102666;-65
2024/01/09 07:22:53;;;;;;;16.77;8.55;;;;;;;-7.19;65.45;99533.03;4928776;28;104038;-66
2024/01/09 07:25:36;;;;;;;12.73;6.13;;;;;;;-7.23;65.63;99531.41;4927658;27;103888;-66
2024/01/09 07:28:04;;;;;;;17.20;7.60;;;;;;;-7.26;66.55;99540.06;4933367;27;103369;-66
2024/01/09 07:30:33;;;;;;;16.02;7.35;;;;;;;-7.16;66.62;99538.13;4935650;28;102828;-66
2024/01/09 07:33:01;;;;;;;20.65;9.75;;;;;;;-7.14;66.71;99528.63;4936036;27;104087;-69
2024/01/09 07:35:34;;;;;;;14.70;7.20;;;;;;;-7.17;66.67;99524.38;4931752;28;103228;-75
2024/01/09 07:38:04;;;;;;;14.67;6.93;;;;;;;-7.02;66.16;99536.06;4945371;28;103897;-67
2024/01/09 07:40:32;;;;;;;12.65;6.75;;;;;;;-6.97;66.01;99535.94;4928847;28;102576;-66
2024/01/09 07:43:00;;;;;;;12.82;7.53;;;;;;;-6.94;65.45;99547.91;4928308;28;104154;-65
2024/01/09 07:45:29;;;;;;;15.27;7.82;;;;;;;-6.99;65.07;99550.59;4933199;28;103283;-66
2024/01/09 07:47:58;;;;;;;15.55;7.28;;;;;;;-6.96;65.86;99547.94;4943314;27;104078;-76
2024/01/09 07:50:28;;;;;;;14.80;6.78;;;;;;;-6.81;65.49;99553.59;4939196;28;102760;-75
2024/01/09 07:52:56;;;;;;;19.27;7.75;;;;;;;-6.72;65.60;99555.94;4933492;28;102799;-76
2024/01/09 07:55:25;;;;;;;15.90;7.60;;;;;;;-6.78;65.13;99556.13;4936380;28;103354;-65
2024/01/09 07:57:53;;;;;;;19.10;7.28;;;;;;;-6.62;65.12;99554.84;4934578;28;103151;-66
2024/01/09 08:00:22;;;;;;;18.17;8.20;;;;;;;-6.57;64.97;99555.56;4930481;28;102951;-66
2024/01/09 08:02:50;;;;;;;16.67;7.65;;;;;;;-6.51;64.24;99568.31;4930064;28;103902;-66
2024/01/09 08:05:18;;;;;;;19.83;7.03;;;;;;;-6.56;64.93;99559.84;4930358;28;104000;-66
2024/01/09 08:07:46;;;;;;;16.27;6.93;;;;;;;-6.57;64.24;99553.00;4929884;28;103232;-66
2024/01/09 08:10:15;;;;;;;14.13;7.90;;;;;;;-6.43;63.51;99565.53;4934266;27;104540;-75
2024/01/09 08:12:45;;;;;;;10.93;6.85;;;;;;;-6.13;64.54;99559.59;4926879;28;104180;-75
2024/01/09 08:15:16;;;;;;;15.15;8.05;;;;;;;-6.29;63.44;99560.00;4924898;28;104271;-75
2024/01/09 08:17:44;;;;;;;14.52;7.55;;;;;;;-5.97;63.22;99557.41;4928799;28;103794;-75
2024/01/09 08:20:13;;;;;;;13.50;7.57;;;;;;;-6.23;62.82;99565.00;4931981;28;103051;-75
2024/01/09 08:22:41;;;;;;;10.30;7.15;;;;;;;-6.20;63.35;99566.66;4930369;28;103739;-75
2024/01/09 08:25:10;;;;;;;14.65;8.38;;;;;;;-6.41;63.26;99568.06;4930458;28;104714;-74
2024/01/09 08:27:38;;;;;;;16.65;8.30;;;;;;;-6.25;63.72;99551.31;4930164;28;103990;-75
2024/01/09 08:30:11;;;;;;;13.98;7.75;;;;;;;-6.04;63.37;99554.19;4931908;27;102819;-75
2024/01/09 08:32:40;;;;;;;17.67;8.50;;;;;;;-6.02;63.97;99560.16;4936851;28;103292;-75
2024/01/09 08:35:08;;;;;;;14.48;7.40;;;;;;;-5.97;62.59;99553.09;4925163;28;103322;-75
2024/01/09 08:37:37;;;;;;;14.70;7.85;;;;;;;-6.00;62.54;99560.94;4927939;28;104342;-66
2024/01/09 08:40:07;;;;;;;10.45;6.38;;;;;;;-5.95;62.45;99555.63;4927604;28;102685;-66
2024/01/09 08:42:35;;;;;;;14.80;8.60;;;;;;;-5.99;62.24;99554.91;4934187;28;104107;-75
2024/01/09 08:45:03;;;;;;;15.38;8.88;;;;;;;-5.79;62.15;99556.03;4933268;28;103209;-66
2024/01/09 08:47:33;;;;;;;16.27;7.72;;;;;;;-5.78;61.45;99558.56;4927422;28;102943;-66
2024/01/09 08:50:02;;;;;;;15.95;7.05;;;;;;;-5.38;61.34;99556.56;4930745;28;103041;-66
2024/01/09 08:52:30;;;;;;;17.73;7.60;;;;;;;-5.43;60.74;99558.44;4918231;27;104158;-66
2024/01/09 08:54:58;;;;;;;14.63;8.02;;;;;;;-5.32;60.53;99558.94;4929457;28;103460;-66
2024/01/09 08:57:27;;;;;;;12.32;6.95;;;;;;;-5.55;59.69;99554.50;4932644;28;103143;-66
2024/01/09 08:59:56;;;;;;;21.25;8.25;;;;;;;-4.98;59.18;99550.16;4926528;28;102771;-66
2024/01/09 09:02:26;;;;;;;14.73;8.20;;;;;;;-4.65;58.65;99555.13;4930164;28;102698;-66
2024/01/09 09:04:55;;;;;;;16.48;8.48;;;;;;;-4.56;58.99;99562.59;4927367;28;103950;-66
2024/01/09 09:07:23;;;;;;;18.52;8.50;;;;;;;-4.71;56.59;99563.09;4926016;28;104948;-66
2024/01/09 09:09:52;;;;;;;13.00;7.88;;;;;;;-4.25;56.76;99558.94;4929700;28;102585;-66
2024/01/09 09:12:20;;;;;;;19.17;9.75;;;;;;;-4.39;56.49;99551.66;4920607;27;104173;-66
2024/01/09 09:14:48;;;;;;;18.05;8.73;;;;;;;-3.97;56.45;99547.59;4926076;28;104411;-67
2024/01/09 09:17:18;;;;;;;17.88;8.15;;;;;;;-4.01;56.91;99558.97;4926871;28;103190;-66
2024/01/09 09:19:46;;;;;;;18.02;8.45;;;;;;;-3.80;55.91;99546.16;4925350;28;102965;-66
2024/01/09 09:22:16;;;;;;;15.40;8.68;;;;;;;-3.65;55.10;99550.78;4926185;28;102655;-66
2024/01/09 09:24:44;;;;;;;15.25;7.82;;;;;;;-3.62;55.38;99552.41;4926743;28;104271;-67
2024/01/09 09:27:12;;;;;;;15.40;9.25;;;;;;;-3.65;54.48;99555.94;4952541;27;104145;-66
2024/01/09 09:29:40;;;;;;;18.40;9.88;;;;;;;-3.87;54.13;99558.47;4926760;28;102796;-65
2024/01/09 09:32:12;;;;;;;17.38;9.20;;;;;;;-3.76;54.57;99548.59;4929632;28;102668;-66
2024/01/09 09:34:40;;;;;;;20.90;9.38;;;;;;;-3.52;53.87;99551.16;4928355;27;103301;-66
2024/01/09 09:37:13;;;;;;;14.93;8.10;;;;;;;-4.01;54.70;99553.78;4930563;28;103181;-66
2024/01/09 09:39:42;;;;;;;16.02;8.65;;;;;;;-3.59;54.89;99545.38;4926676;28;102792;-66
2024/01/09 09:42:10;;;;;;;17.08;8.45;;;;;;;-3.85;53.90;99539.41;4932501;28;103860;-66
2024/01/09 09:44:40;;;;;;;17.17;8.93;;;;;;;-3.58;54.77;99549.63;4930025;28;104082;-76
2024/01/09 09:47:11;;;;;;;18.13;8.98;;;;;;;-3.43;53.12;99539.56;4931387;28;104009;-75
2024/01/09 09:49:41;;;;;;;21.58;9.70;;;;;;;-3.02;53.54;99547.50;4932476;28;102739;-74
2024/01/09 09:52:10;;;;;;;16.20;8.95;;;;;;;-3.04;52.25;99546.69;4923447;28;102628;-74
2024/01/09 09:54:39;;;;;;;19.98;9.55;;;;;;;-2.98;51.84;99546.47;4929679;28;104068;-74
2024/01/09 09:57:09;;;;;;;17.20;9.52;;;;;;;-2.84;51.64;99540.72;4923511;27;104278;-76
2024/01/09 09:59:37;;;;;;;15.55;9.23;;;;;;;-2.97;53.43;99542.97;4931037;27;102743;-75
2024/01/09 10:02:06;;;;;;;20.15;10.90;;;;;;;-2.63;52.74;99536.41;4930052;28;103455;-75
2024/01/09 10:04:47;;;;;;;19.23;8.82;;;;;;;-2.75;52.28;99534.31;4923556;28;103204;-75
2024/01/09 10:07:19;;;;;;;15.48;8.77;;;;;;;-3.18;52.30;99535.13;4932234;28;103254;-75
2024/01/09 10:09:53;;;;;;;19.20;9.00;;;;;;;-2.63;51.74;99530.34;4930692;28;102719;-67
2024/01/09 10:12:24;;;;;;;16.73;9.13;;;;;;;-2.86;50.63;99526.97;4932096;28;103026;-68
2024/01/09 10:15:07;;;;;;;17.38;9.27;;;;;;;-2.55;49.97;99523.13;4926318;28;104204;-67
2024/01/09 10:17:35;;;;;;;18.30;9.65;;;;;;;-2.54;50.10;99525.66;4923306;27;102809;-66
2024/01/09 10:20:05;;;;;;;18.52;12.18;;;;;;;-2.41;50.42;99519.91;4927219;27;102669;-64
2024/01/09 10:22:35;;;;;;;17.15;8.77;;;;;;;-2.31;49.75;99521.22;4933294;27;103319;-64
2024/01/09 10:25:05;;;;;;;14.18;8.82;;;;;;;-2.95;50.14;99523.00;4936214;28;104115;-64
2024/01/09 10:27:36;;;;;;;16.20;11.95;;;;;;;-2.28;50.44;99521.09;4929743;27;104096;-64
2024/01/09 10:30:05;;;;;;;19.63;12.10;;;;;;;-2.38;50.44;99518.03;4928865;28;102710;-65
2024/01/09 10:32:35;;;;;;;14.82;8.68;;;;;;;-2.47;50.25;99517.63;4930590;28;103713;-63
2024/01/09 10:35:05;;;;;;;16.25;8.73;;;;;;;-2.78;50.69;99516.28;4925897;28;103301;-63
2024/01/09 10:37:35;;;;;;;18.30;9.18;;;;;;;-2.22;50.42;99507.84;4926654;28;103271;-64
2024/01/09 10:40:05;;;;;;;14.85;10.07;;;;;;;-1.96;50.21;99505.84;4928844;27;103828;-64
2024/01/09 10:42:46;;;;;;;20.30;11.93;;;;;;;-2.29;49.00;99506.44;4928659;28;102773;-65
2024/01/09 10:45:19;;;;;;;15.20;10.68;;;;;;;-2.60;49.16;99506.91;4933365;28;104393;-65
2024/01/09 10:47:52;;;;;;;16.10;9.40;;;;;;;-2.82;49.60;99505.19;4930349;28;103221;-65
2024/01/09 10:50:22;;;;;;;17.17;9.13;;;;;;;-2.42;50.61;99502.69;4928655;28;103829;-65
2024/01/09 10:52:52;;;;;;;15.05;9.68;;;;;;;-1.78;49.40;99505.91;4929369;28;103888;-65
2024/01/09 10:55:24;;;;;;;16.02;10.93;;;;;;;-1.50;48.05;99508.09;4930641;27;104271;-65
2024/01/09 10:57:53;;;;;;;16.63;10.57;;;;;;;-1.73;48.41;99491.84;4932714;28;104279;-65
2024/01/09 11:00:23;;;;;;;17.17;11.77;;;;;;;-1.77;48.80;99505.00;4927358;28;104784;-65
2024/01/09 11:02:52;;;;;;;17.90;11.73;;;;;;;-1.34;48.55;99503.88;4921545;27;104353;-64
2024/01/09 11:05:22;;;;;;;21.83;10.32;;;;;;;-0.90;47.58;99497.44;4931373;28;103161;-65
2024/01/09 11:07:57;;;;;;;18.98;11.93;;;;;;;-1.39;47.87;99498.06;4931400;28;103159;-65
2024/01/09 11:10:28;;;;;;;17.67;11.27;;;;;;;-1.60;46.84;99497.28;4928093;28;102777;-66
2024/01/09 11:13:01;;;;;;;18.42;13.27;;;;;;;-1.86;47.32;99501.94;4931932;28;103673;-66
2024/01/09 11:15:33;;;;;;;17.88;11.85;;;;;;;-1.53;47.67;99492.66;4925064;28;103202;-65
2024/01/09 11:18:08;;;;;;;15.02;8.05;;;;;;;-1.53;46.95;99490.06;4932197;28;103267;-66
2024/01/09 11:20:36;;;;;;;16.17;10.35;;;;;;;-1.52;47.00;99484.78;4931764;28;102706;-66
2024/01/09 11:23:05;;;;;;;15.43;10.25;;;;;;;-0.84;47.35;99491.94;4920647;27;102865;-65
2024/01/09 11:25:35;;;;;;;15.25;10.25;;;;;;;-1.21;46.13;99488.50;4930977;28;103872;-65